Mia-s — V2EI7 — position and weather

sailwx.info

Track history (hours):
 
Tides and Currents Weather Stations Pressure Air Temp Water Temp Dewpoint Dewpoint Depression Visibility Wind Speed Wind Dir Waves Ship Positions

Mia-s

Last reported at 2016-Nov-28 09:32 UTC. Time now 2016-Dec-04 12:17 UTC.
Position N 22°45' E 113°39'.

Length 190 m; draft 6.7 m.

Type: Cargo ship. MMSI: 305442000.

Date/timePositionNaut miles runAvg speedWind from/ knotsBaromVisibWave heightAir tempDewpointWater temp
2016-Nov-28 09:32N 22°45' E 113°39'1110.7
2016-Nov-28 08:33N 22°54' E 113°34'7 7.4
2016-Nov-28 07:32N 23°01' E 113°32'0 0.0
2016-Nov-28 06:32N 23°01' E 113°32'0 0.0
2016-Nov-28 05:32N 23°01' E 113°32'0 0.0
2016-Nov-28 04:26N 23°01' E 113°32'0 0.0
2016-Nov-28 03:26N 23°01' E 113°32'0 0.0
2016-Nov-28 02:20N 23°01' E 113°32'0 0.0
2016-Nov-28 01:32N 23°01' E 113°32'0 0.0
2016-Nov-28 00:26N 23°01' E 113°32'0 0.0
2016-Nov-27 23:32N 23°01' E 113°32'0 0.0
2016-Nov-27 22:32N 23°01' E 113°32'0 0.0
2016-Nov-27 21:32N 23°01' E 113°32'0 0.0
2016-Nov-27 20:32N 23°01' E 113°32'0 0.0
2016-Nov-27 18:20N 23°01' E 113°32'0 0.0
2016-Nov-27 17:32N 23°01' E 113°32'0 0.0
2016-Nov-27 16:32N 23°01' E 113°32'0 0.0
2016-Nov-27 15:32N 23°01' E 113°32'1 0.5
2016-Nov-27 14:33N 23°02' E 113°31'0 0.0
2016-Nov-27 13:32N 23°02' E 113°31'0 0.0
2016-Nov-27 12:32N 23°02' E 113°31'0 0.0
2016-Nov-27 11:32N 23°02' E 113°31'0 0.0
2016-Nov-27 10:26N 23°02' E 113°31'0 0.0
2016-Nov-27 09:32N 23°02' E 113°31'0 0.0
2016-Nov-27 08:32N 23°02' E 113°31'0 0.0
2016-Nov-27 07:32N 23°02' E 113°31'0 0.0
2016-Nov-27 06:26N 23°02' E 113°31'0 0.0
2016-Nov-27 05:08N 23°02' E 113°31'0 0.0
2016-Nov-27 04:32N 23°02' E 113°31'0 0.0
2016-Nov-27 02:14N 23°02' E 113°31'0 0.0
2016-Nov-27 01:32N 23°02' E 113°31'0 0.0
2016-Nov-27 00:32N 23°02' E 113°31'0 0.0
2016-Nov-26 23:20N 23°02' E 113°31'0 0.0
2016-Nov-26 22:26N 23°02' E 113°31'0 0.0
2016-Nov-26 21:32N 23°02' E 113°31'0 0.0
2016-Nov-26 20:32N 23°02' E 113°31'0 0.0
2016-Nov-26 19:32N 23°02' E 113°31'0 0.0
2016-Nov-26 18:32N 23°02' E 113°31'0 0.0
2016-Nov-26 17:14N 23°02' E 113°31'0 0.0
2016-Nov-26 16:26N 23°02' E 113°31'0 0.0
2016-Nov-26 15:32N 23°02' E 113°31'0 0.0
2016-Nov-26 14:20N 23°02' E 113°31'0 0.0
2016-Nov-26 13:32N 23°02' E 113°31'0 0.0
2016-Nov-26 12:32N 23°02' E 113°31'0 0.0
2016-Nov-26 11:32N 23°02' E 113°31'0 0.0
2016-Nov-26 10:32N 23°02' E 113°31'0 0.2
2016-Nov-26 09:33N 23°01' E 113°31'7 7.3
2016-Nov-26 08:33N 22°54' E 113°34'7 7.2
2016-Nov-26 07:33N 22°48' E 113°37'27 8.9
2016-Nov-26 04:30N 22°22' E 113°47'  
Track history (hours):
 
Tides and Currents Weather Stations Pressure Air Temp Water Temp Dewpoint Dewpoint Depression Visibility Wind Speed Wind Dir Waves Ship Positions

Mia-s

Last reported at 2016-Nov-28 09:32 UTC. Time now 2016-Dec-04 12:17 UTC.
Position N 22°45' E 113°39'.

Length 190 m; draft 6.7 m.

Type: Cargo ship. MMSI: 305442000.

Date/timePositionNaut miles runAvg speedWind from/ knotsBaromVisibWave heightAir tempDewpointWater temp
2016-Nov-28 09:32N 22°45' E 113°39'1110.7
2016-Nov-28 08:33N 22°54' E 113°34'7 7.4
2016-Nov-28 07:32N 23°01' E 113°32'0 0.0
2016-Nov-28 06:32N 23°01' E 113°32'0 0.0
2016-Nov-28 05:32N 23°01' E 113°32'0 0.0
2016-Nov-28 04:26N 23°01' E 113°32'0 0.0
2016-Nov-28 03:26N 23°01' E 113°32'0 0.0
2016-Nov-28 02:20N 23°01' E 113°32'0 0.0
2016-Nov-28 01:32N 23°01' E 113°32'0 0.0
2016-Nov-28 00:26N 23°01' E 113°32'0 0.0
2016-Nov-27 23:32N 23°01' E 113°32'0 0.0
2016-Nov-27 22:32N 23°01' E 113°32'0 0.0
2016-Nov-27 21:32N 23°01' E 113°32'0 0.0
2016-Nov-27 20:32N 23°01' E 113°32'0 0.0
2016-Nov-27 18:20N 23°01' E 113°32'0 0.0
2016-Nov-27 17:32N 23°01' E 113°32'0 0.0
2016-Nov-27 16:32N 23°01' E 113°32'0 0.0
2016-Nov-27 15:32N 23°01' E 113°32'1 0.5
2016-Nov-27 14:33N 23°02' E 113°31'0 0.0
2016-Nov-27 13:32N 23°02' E 113°31'0 0.0
2016-Nov-27 12:32N 23°02' E 113°31'0 0.0
2016-Nov-27 11:32N 23°02' E 113°31'0 0.0
2016-Nov-27 10:26N 23°02' E 113°31'0 0.0
2016-Nov-27 09:32N 23°02' E 113°31'0 0.0
2016-Nov-27 08:32N 23°02' E 113°31'0 0.0
2016-Nov-27 07:32N 23°02' E 113°31'0 0.0
2016-Nov-27 06:26N 23°02' E 113°31'0 0.0
2016-Nov-27 05:08N 23°02' E 113°31'0 0.0
2016-Nov-27 04:32N 23°02' E 113°31'0 0.0
2016-Nov-27 02:14N 23°02' E 113°31'0 0.0
2016-Nov-27 01:32N 23°02' E 113°31'0 0.0
2016-Nov-27 00:32N 23°02' E 113°31'0 0.0
2016-Nov-26 23:20N 23°02' E 113°31'0 0.0
2016-Nov-26 22:26N 23°02' E 113°31'0 0.0
2016-Nov-26 21:32N 23°02' E 113°31'0 0.0
2016-Nov-26 20:32N 23°02' E 113°31'0 0.0
2016-Nov-26 19:32N 23°02' E 113°31'0 0.0
2016-Nov-26 18:32N 23°02' E 113°31'0 0.0
2016-Nov-26 17:14N 23°02' E 113°31'0 0.0
2016-Nov-26 16:26N 23°02' E 113°31'0 0.0
2016-Nov-26 15:32N 23°02' E 113°31'0 0.0
2016-Nov-26 14:20N 23°02' E 113°31'0 0.0
2016-Nov-26 13:32N 23°02' E 113°31'0 0.0
2016-Nov-26 12:32N 23°02' E 113°31'0 0.0
2016-Nov-26 11:32N 23°02' E 113°31'0 0.0
2016-Nov-26 10:32N 23°02' E 113°31'0 0.2
2016-Nov-26 09:33N 23°01' E 113°31'7 7.3
2016-Nov-26 08:33N 22°54' E 113°34'7 7.2
2016-Nov-26 07:33N 22°48' E 113°37'27 8.9
2016-Nov-26 04:30N 22°22' E 113°47'  

Dump ship's entire track history